createdAt,value
2023-05-17T00:01:27.937Z,15.22
2023-05-17T00:04:02.824Z,15.24
2023-05-17T00:06:35.765Z,15.25
2023-05-17T00:09:08.889Z,15.20
2023-05-17T00:11:41.654Z,15.18
2023-05-17T00:17:22.997Z,15.20
2023-05-17T00:19:55.951Z,15.16
2023-05-17T00:22:29.243Z,15.13
2023-05-17T00:25:02.020Z,15.10
2023-05-17T00:27:34.948Z,15.07
2023-05-17T00:30:09.096Z,15.04
2023-05-17T00:32:45.727Z,15.09
2023-05-17T00:35:18.702Z,15.10
2023-05-17T00:37:51.391Z,15.10
2023-05-17T00:40:24.265Z,15.14
2023-05-17T00:42:56.976Z,15.15
2023-05-17T00:45:30.325Z,15.14
2023-05-17T00:48:04.963Z,15.08
2023-05-17T00:50:38.078Z,15.04
2023-05-17T00:53:11.341Z,14.99
2023-05-17T00:55:44.976Z,15.06
2023-05-17T00:58:18.208Z,15.05
2023-05-17T01:00:52.320Z,14.99
2023-05-17T01:03:26.561Z,14.97
2023-05-17T01:05:59.389Z,15.03
2023-05-17T01:08:34.526Z,15.04
2023-05-17T01:11:15.204Z,15.00
2023-05-17T01:13:56.666Z,15.02
2023-05-17T01:16:34.461Z,15.02
2023-05-17T01:19:34.767Z,14.96
2023-05-17T01:22:16.965Z,14.97
2023-05-17T01:25:01.936Z,14.99
2023-05-17T01:27:40.930Z,14.95
2023-05-17T01:30:18.128Z,14.89
2023-05-17T01:32:51.939Z,14.90
2023-05-17T01:35:24.904Z,14.87
2023-05-17T01:40:55.619Z,14.87
2023-05-17T01:43:36.553Z,14.84
2023-05-17T01:46:16.221Z,14.77
2023-05-17T01:48:56.236Z,14.82
2023-05-17T01:51:34.393Z,14.78
2023-05-17T01:54:12.180Z,14.75
2023-05-17T01:56:54.301Z,14.74
2023-05-17T01:59:28.739Z,14.74
2023-05-17T02:02:06.311Z,14.72
2023-05-17T02:04:39.140Z,14.77
2023-05-17T02:07:11.952Z,14.71
2023-05-17T02:09:47.443Z,14.75
2023-05-17T02:12:21.670Z,14.74
2023-05-17T02:14:54.691Z,14.73
2023-05-17T02:17:27.452Z,14.75
2023-05-17T02:20:00.262Z,14.75
2023-05-17T02:22:33.644Z,14.68
2023-05-17T02:25:07.528Z,14.70
2023-05-17T02:27:41.720Z,14.66
2023-05-17T02:30:19.188Z,14.69
2023-05-17T02:32:59.377Z,14.67
2023-05-17T02:35:32.241Z,14.64
2023-05-17T02:38:05.257Z,14.67
2023-05-17T02:40:37.916Z,14.67
2023-05-17T02:43:12.134Z,14.67
2023-05-17T02:45:45.124Z,14.74
2023-05-17T02:48:19.393Z,14.65
2023-05-17T02:50:52.705Z,14.72
2023-05-17T02:53:25.528Z,14.77
2023-05-17T02:55:58.691Z,14.75
2023-05-17T02:58:32.903Z,14.72
2023-05-17T03:01:05.950Z,14.64
2023-05-17T03:03:38.858Z,14.65
2023-05-17T03:06:12.533Z,14.61
2023-05-17T03:08:45.516Z,14.65
2023-05-17T03:11:18.713Z,14.69
2023-05-17T03:13:53.232Z,14.61
2023-05-17T03:16:30.651Z,14.62
2023-05-17T03:19:06.778Z,14.62
2023-05-17T03:21:40.350Z,14.69
2023-05-17T03:24:13.139Z,14.63
2023-05-17T03:26:46.619Z,14.59
2023-05-17T03:29:21.433Z,14.63
2023-05-17T03:31:54.712Z,14.61
2023-05-17T03:34:28.361Z,14.58
2023-05-17T03:37:02.210Z,14.61
2023-05-17T03:39:35.517Z,14.58
2023-05-17T03:42:08.274Z,14.58
2023-05-17T03:44:42.879Z,14.56
2023-05-17T03:47:16.806Z,14.61
2023-05-17T03:49:50.385Z,14.57
2023-05-17T03:52:23.786Z,14.55
2023-05-17T03:54:56.594Z,14.59
2023-05-17T03:57:30.047Z,14.55
2023-05-17T04:00:10.542Z,14.60
2023-05-17T04:02:47.473Z,14.50
2023-05-17T04:05:21.031Z,14.46
2023-05-17T04:07:55.983Z,14.51
2023-05-17T04:10:29.020Z,14.42
2023-05-17T04:13:01.696Z,14.48
2023-05-17T04:15:36.202Z,14.45
2023-05-17T04:18:10.381Z,14.48
2023-05-17T04:20:43.448Z,14.42
2023-05-17T04:23:16.280Z,14.37
2023-05-17T04:25:49.112Z,14.35
2023-05-17T04:28:23.162Z,14.32
2023-05-17T04:30:58.251Z,14.35
2023-05-17T04:33:31.204Z,14.43
2023-05-17T04:36:05.696Z,14.34
2023-05-17T04:38:39.012Z,14.36
2023-05-17T04:41:16.176Z,14.34
2023-05-17T04:43:49.431Z,14.28
2023-05-17T04:46:29.621Z,14.26
2023-05-17T04:49:03.472Z,14.29
2023-05-17T04:51:37.364Z,14.30
2023-05-17T04:54:09.989Z,14.32
2023-05-17T04:56:43.103Z,14.32
2023-05-17T04:59:21.270Z,14.31
2023-05-17T05:01:56.432Z,14.38
2023-05-17T05:04:29.241Z,14.40
2023-05-17T05:07:02.154Z,14.42
2023-05-17T05:09:35.243Z,14.42
2023-05-17T05:12:09.627Z,14.40
2023-05-17T05:14:43.284Z,14.42
2023-05-17T05:17:17.405Z,14.42
2023-05-17T05:19:52.077Z,14.43
2023-05-17T05:22:25.803Z,14.47
2023-05-17T05:24:58.832Z,14.45
2023-05-17T05:27:31.706Z,14.41
2023-05-17T05:30:05.345Z,14.37
2023-05-17T05:32:40.938Z,14.45
2023-05-17T05:38:11.255Z,14.35
2023-05-17T05:40:44.374Z,14.45
2023-05-17T05:43:17.248Z,14.37
2023-05-17T05:45:51.045Z,14.42
2023-05-17T05:48:26.166Z,14.36
2023-05-17T05:50:59.241Z,14.35
2023-05-17T05:53:31.926Z,14.33
2023-05-17T05:56:05.508Z,14.39
2023-05-17T05:58:38.398Z,14.32
2023-05-17T06:01:12.678Z,14.33
2023-05-17T06:03:46.811Z,14.36
2023-05-17T06:06:19.890Z,14.31
2023-05-17T06:08:52.807Z,14.32
2023-05-17T06:11:27.155Z,14.32
2023-05-17T06:20:03.519Z,14.34
2023-05-17T06:22:36.383Z,14.30
2023-05-17T06:25:11.022Z,14.37
2023-05-17T06:27:43.958Z,14.36
2023-05-17T06:30:16.995Z,14.46
2023-05-17T06:32:50.024Z,14.48
2023-05-17T06:35:55.591Z,14.60
2023-05-17T06:38:29.500Z,14.59
2023-05-17T06:41:02.660Z,14.73
2023-05-17T06:43:37.508Z,14.82
2023-05-17T06:46:10.726Z,14.87
2023-05-17T06:48:43.565Z,15.11
2023-05-17T06:51:18.120Z,15.04
2023-05-17T06:53:51.488Z,15.17
2023-05-17T06:56:24.380Z,15.24
2023-05-17T06:58:57.364Z,15.32
2023-05-17T07:01:30.423Z,15.57
2023-05-17T07:04:03.497Z,15.77
2023-05-17T07:06:38.677Z,15.97
2023-05-17T07:09:11.741Z,16.10
2023-05-17T07:11:44.564Z,16.29
2023-05-17T07:14:17.656Z,16.41
2023-05-17T07:16:50.696Z,16.59
2023-05-17T07:19:23.996Z,16.71
2023-05-17T07:21:58.370Z,16.83
2023-05-17T07:24:32.208Z,16.93
2023-05-17T07:27:05.534Z,17.04
2023-05-17T07:29:38.419Z,17.21
2023-05-17T07:32:11.197Z,17.36
2023-05-17T07:34:44.046Z,17.56
2023-05-17T07:37:18.249Z,17.64
2023-05-17T07:39:51.118Z,17.85
2023-05-17T07:42:24.174Z,18.10
2023-05-17T07:44:57.119Z,18.14
2023-05-17T07:47:31.946Z,18.35
2023-05-17T07:50:05.455Z,18.43
2023-05-17T07:52:39.728Z,18.60
2023-05-17T07:55:13.740Z,18.69
2023-05-17T07:57:48.370Z,18.71
2023-05-17T08:00:22.703Z,19.13
2023-05-17T08:02:55.684Z,19.20
2023-05-17T08:05:28.579Z,19.37
2023-05-17T08:08:03.245Z,19.50
2023-05-17T08:10:37.812Z,19.58
2023-05-17T08:13:10.808Z,19.65
2023-05-17T08:15:43.968Z,19.80
2023-05-17T08:18:16.994Z,19.82
2023-05-17T08:20:50.696Z,19.89
2023-05-17T08:23:25.060Z,19.93
2023-05-17T08:25:57.966Z,19.98
2023-05-17T08:28:30.645Z,19.93
2023-05-17T08:31:04.309Z,19.95
2023-05-17T08:33:37.374Z,20.02
2023-05-17T08:36:10.317Z,20.03
2023-05-17T08:38:44.854Z,20.27
2023-05-17T08:41:17.701Z,20.36
2023-05-17T08:43:51.031Z,20.43
2023-05-17T08:46:25.091Z,20.60
2023-05-17T08:49:00.570Z,20.76
2023-05-17T08:51:33.822Z,20.78
2023-05-17T08:54:08.492Z,20.92
2023-05-17T08:56:43.723Z,21.02
2023-05-17T08:59:16.599Z,21.13
2023-05-17T09:01:50.228Z,21.36
2023-05-17T09:04:23.869Z,21.44
2023-05-17T09:06:56.754Z,21.47
2023-05-17T09:09:31.185Z,21.58
2023-05-17T09:12:04.413Z,21.62
2023-05-17T09:14:37.356Z,21.99
2023-05-17T09:17:10.003Z,21.97
2023-05-17T09:19:46.588Z,22.02
2023-05-17T09:22:20.606Z,22.12
2023-05-17T09:24:54.922Z,22.41
2023-05-17T09:27:27.732Z,22.52
2023-05-17T09:30:00.727Z,22.64
2023-05-17T09:32:34.228Z,22.85
2023-05-17T09:35:08.620Z,23.01
2023-05-17T09:37:45.245Z,23.08
2023-05-17T09:40:26.341Z,23.23
2023-05-17T09:43:00.113Z,23.25
2023-05-17T09:45:33.190Z,23.41
2023-05-17T09:48:13.897Z,23.36
2023-05-17T09:50:48.703Z,23.40
2023-05-17T09:53:27.023Z,23.70
2023-05-17T09:56:03.366Z,23.73
2023-05-17T09:58:38.461Z,23.88
2023-05-17T10:01:12.225Z,23.92
2023-05-17T10:03:45.739Z,23.98
2023-05-17T10:08:57.959Z,24.19
2023-05-17T10:11:34.426Z,24.51
2023-05-17T10:14:12.483Z,24.61
2023-05-17T10:16:46.035Z,24.69
2023-05-17T10:19:21.050Z,24.78
2023-05-17T10:22:00.215Z,24.83
2023-05-17T10:24:41.681Z,24.97
2023-05-17T10:27:17.148Z,24.95
2023-05-17T10:29:51.235Z,25.15
2023-05-17T10:32:27.228Z,25.15
2023-05-17T10:35:11.247Z,25.06
2023-05-17T10:37:44.501Z,25.25
2023-05-17T10:40:20.250Z,25.36
2023-05-17T10:42:56.627Z,25.27
2023-05-17T10:45:29.998Z,25.56
2023-05-17T10:48:06.845Z,25.52
2023-05-17T10:50:47.445Z,25.53
2023-05-17T10:53:27.164Z,25.56
2023-05-17T10:55:59.874Z,25.67
2023-05-17T10:58:34.533Z,25.67
2023-05-17T11:01:08.560Z,25.53
2023-05-17T11:03:44.341Z,25.65
2023-05-17T11:06:24.036Z,25.84
2023-05-17T11:09:08.825Z,25.90
2023-05-17T11:12:04.698Z,26.03
2023-05-17T11:14:58.032Z,26.33
2023-05-17T11:17:35.863Z,26.18
2023-05-17T11:20:28.247Z,26.23
2023-05-17T11:23:04.764Z,26.31
2023-05-17T11:25:40.571Z,26.38
2023-05-17T11:28:20.069Z,26.55
2023-05-17T11:31:01.776Z,26.13
2023-05-17T11:33:44.117Z,25.77
2023-05-17T11:36:21.555Z,25.34
2023-05-17T11:39:12.893Z,26.11
2023-05-17T11:41:50.511Z,26.15
2023-05-17T11:44:26.911Z,26.24
2023-05-17T11:47:06.016Z,26.16
2023-05-17T11:49:40.575Z,26.53
2023-05-17T11:52:13.519Z,26.52
2023-05-17T11:54:46.706Z,26.28
2023-05-17T11:57:21.561Z,26.63
2023-05-17T11:59:59.992Z,26.50
2023-05-17T12:02:34.244Z,26.56
2023-05-17T12:05:09.447Z,26.60
2023-05-17T12:07:42.418Z,26.55
2023-05-17T12:10:15.502Z,26.17
2023-05-17T12:12:48.598Z,26.27
2023-05-17T12:15:21.373Z,26.32
2023-05-17T12:17:56.420Z,26.52
2023-05-17T12:20:33.021Z,26.49
2023-05-17T12:23:06.274Z,26.21
2023-05-17T12:25:39.257Z,26.75
2023-05-17T12:28:18.330Z,26.93
2023-05-17T12:30:54.102Z,26.67
2023-05-17T12:33:28.985Z,26.82
2023-05-17T12:36:03.530Z,26.85
2023-05-17T12:38:38.252Z,27.22
2023-05-17T12:41:13.182Z,27.05
2023-05-17T12:43:47.201Z,26.61
2023-05-17T12:46:23.130Z,26.84
2023-05-17T12:49:06.116Z,27.42
2023-05-17T12:51:45.534Z,27.47
2023-05-17T12:54:27.564Z,27.10
2023-05-17T12:57:12.305Z,26.64
2023-05-17T12:59:49.764Z,26.14
2023-05-17T13:02:23.878Z,27.06
2023-05-17T13:04:58.593Z,27.46
2023-05-17T13:07:31.433Z,27.20
2023-05-17T13:10:04.074Z,26.80
2023-05-17T13:12:39.210Z,26.82
2023-05-17T13:15:12.459Z,26.99
2023-05-17T13:17:50.036Z,26.92
2023-05-17T13:20:28.081Z,26.98
2023-05-17T13:23:01.126Z,27.25
2023-05-17T13:25:33.767Z,27.02
2023-05-17T13:28:06.762Z,27.07
2023-05-17T13:30:40.309Z,27.31
2023-05-17T13:33:13.235Z,26.79
2023-05-17T13:35:47.630Z,26.35
2023-05-17T13:38:25.026Z,26.91
2023-05-17T13:40:57.894Z,26.60
2023-05-17T13:43:30.823Z,27.17
2023-05-17T13:46:04.686Z,27.28
2023-05-17T13:48:39.185Z,27.40
2023-05-17T13:51:15.522Z,27.45
2023-05-17T13:53:48.386Z,27.33
2023-05-17T13:56:22.414Z,27.45
2023-05-17T13:58:55.218Z,27.53
2023-05-17T14:01:27.850Z,27.39
2023-05-17T14:04:00.876Z,27.46
2023-05-17T14:06:35.435Z,27.47
2023-05-17T14:09:08.263Z,27.34
2023-05-17T14:11:40.905Z,27.35
2023-05-17T14:14:13.934Z,27.61
2023-05-17T14:16:46.681Z,27.68
2023-05-17T14:19:19.363Z,27.57
2023-05-17T14:21:53.608Z,27.48
2023-05-17T14:24:26.314Z,27.48
2023-05-17T14:26:59.185Z,27.13
2023-05-17T14:29:32.225Z,27.38
2023-05-17T14:32:05.663Z,26.07
2023-05-17T14:34:38.701Z,27.05
2023-05-17T14:37:14.050Z,27.11
2023-05-17T14:39:55.202Z,26.43
2023-05-17T14:42:38.422Z,26.87
2023-05-17T14:45:11.065Z,26.80
2023-05-17T14:47:44.015Z,26.65
2023-05-17T14:50:17.008Z,26.87
2023-05-17T14:52:51.417Z,26.85
2023-05-17T14:55:26.391Z,26.70
2023-05-17T14:57:59.307Z,26.75
2023-05-17T15:00:32.234Z,26.37
2023-05-17T15:03:05.467Z,26.41
2023-05-17T15:05:38.789Z,26.58
2023-05-17T15:08:14.298Z,26.54
2023-05-17T15:10:47.283Z,25.91
2023-05-17T15:13:20.128Z,26.27
2023-05-17T15:15:53.242Z,26.19
2023-05-17T15:18:26.118Z,26.24
2023-05-17T15:20:59.481Z,26.14
2023-05-17T15:23:33.861Z,26.13
2023-05-17T15:26:06.902Z,25.98
2023-05-17T15:28:39.806Z,25.72
2023-05-17T15:31:12.472Z,25.34
2023-05-17T15:33:45.589Z,25.69
2023-05-17T15:36:18.626Z,25.60
2023-05-17T15:38:52.934Z,25.58
2023-05-17T15:41:29.893Z,25.33
2023-05-17T15:44:05.416Z,25.04
2023-05-17T15:46:38.409Z,25.28
2023-05-17T15:49:11.611Z,25.16
2023-05-17T15:51:44.391Z,24.89
2023-05-17T15:54:18.405Z,24.98
2023-05-17T15:56:51.283Z,24.90
2023-05-17T15:59:24.165Z,24.88
2023-05-17T16:01:56.739Z,24.77
2023-05-17T16:04:30.708Z,24.69
2023-05-17T16:07:03.634Z,24.45
2023-05-17T16:09:37.701Z,24.40
2023-05-17T16:12:10.622Z,23.84
2023-05-17T16:14:44.851Z,24.09
2023-05-17T16:17:17.575Z,23.98
2023-05-17T16:19:50.367Z,23.85
2023-05-17T16:22:22.986Z,23.48
2023-05-17T16:24:57.173Z,23.76
2023-05-17T16:27:30.023Z,23.65
2023-05-17T16:30:03.591Z,23.65
2023-05-17T16:32:36.664Z,23.67
2023-05-17T16:35:10.118Z,23.49
2023-05-17T16:37:43.448Z,23.32
2023-05-17T16:40:17.735Z,23.23
2023-05-17T16:42:50.587Z,22.99
2023-05-17T16:45:23.543Z,22.73
2023-05-17T16:47:56.218Z,22.76
2023-05-17T16:50:29.296Z,22.65
2023-05-17T16:53:02.306Z,22.43
2023-05-17T16:55:37.407Z,21.85
2023-05-17T16:58:10.354Z,22.04
2023-05-17T17:00:45.084Z,22.01
2023-05-17T17:03:18.781Z,21.80
2023-05-17T17:05:51.592Z,21.55
2023-05-17T17:08:24.441Z,21.19
2023-05-17T17:10:58.463Z,21.31
2023-05-17T17:13:31.495Z,21.33
2023-05-17T17:16:04.728Z,21.18
2023-05-17T17:18:39.628Z,21.11
2023-05-17T17:21:12.542Z,21.25
2023-05-17T17:23:46.121Z,21.19
2023-05-17T17:26:21.093Z,21.18
2023-05-17T17:28:53.938Z,21.11
2023-05-17T17:31:26.760Z,21.06
2023-05-17T17:33:59.564Z,21.06
2023-05-17T17:36:32.827Z,21.00
2023-05-17T17:39:05.608Z,20.87
2023-05-17T17:41:39.730Z,20.79
2023-05-17T17:44:12.774Z,20.69
2023-05-17T17:46:46.421Z,20.61
2023-05-17T17:49:20.667Z,20.49
2023-05-17T17:51:53.919Z,20.48
2023-05-17T17:54:26.765Z,20.45
2023-05-17T17:57:03.222Z,20.33
2023-05-17T17:59:36.037Z,20.29
2023-05-17T18:02:08.967Z,20.25
2023-05-17T18:04:41.925Z,20.13
2023-05-17T18:07:16.929Z,20.05
2023-05-17T18:09:50.879Z,20.01
2023-05-17T18:12:27.164Z,19.92
2023-05-17T18:15:00.010Z,19.79
2023-05-17T18:17:33.014Z,19.74
2023-05-17T18:20:12.816Z,19.70
2023-05-17T18:22:45.780Z,19.64
2023-05-17T18:25:18.676Z,19.54
2023-05-17T18:27:53.287Z,19.50
2023-05-17T18:30:28.385Z,19.51
2023-05-17T18:33:02.466Z,19.48
2023-05-17T18:35:35.820Z,19.43
2023-05-17T18:38:08.895Z,19.37
2023-05-17T18:40:43.892Z,19.32
2023-05-17T18:43:18.126Z,19.22
2023-05-17T18:45:51.802Z,19.19
2023-05-17T18:48:25.284Z,19.14
2023-05-17T18:50:59.921Z,19.08
2023-05-17T18:53:32.766Z,18.97
2023-05-17T18:56:06.244Z,18.93
2023-05-17T18:58:40.512Z,18.83
2023-05-17T19:01:14.132Z,18.78
2023-05-17T19:03:48.158Z,18.72
2023-05-17T19:06:21.302Z,18.68
2023-05-17T19:08:54.783Z,18.62
2023-05-17T19:11:28.618Z,18.64
2023-05-17T19:14:04.826Z,18.64
2023-05-17T19:16:37.636Z,18.52
2023-05-17T19:19:10.409Z,18.42
2023-05-17T19:21:43.204Z,18.42
2023-05-17T19:24:16.165Z,18.37
2023-05-17T19:26:49.018Z,18.32
2023-05-17T19:29:23.475Z,18.24
2023-05-17T19:31:56.439Z,18.21
2023-05-17T19:34:29.935Z,18.16
2023-05-17T19:37:02.960Z,18.09
2023-05-17T19:39:36.439Z,17.95
2023-05-17T19:42:09.723Z,17.95
2023-05-17T19:44:44.498Z,17.79
2023-05-17T19:47:17.955Z,17.74
2023-05-17T19:49:50.854Z,17.80
2023-05-17T19:52:23.648Z,17.84
2023-05-17T19:54:56.539Z,17.78
2023-05-17T19:57:29.544Z,17.53
2023-05-17T20:00:04.990Z,17.55
2023-05-17T20:02:37.851Z,17.54
2023-05-17T20:05:10.728Z,17.43
2023-05-17T20:07:43.718Z,17.38
2023-05-17T20:10:18.701Z,17.39
2023-05-17T20:12:52.075Z,17.34
2023-05-17T20:15:26.734Z,17.20
2023-05-17T20:17:59.698Z,17.12
2023-05-17T20:20:32.855Z,17.08
2023-05-17T20:23:07.458Z,16.99
2023-05-17T20:25:41.811Z,17.11
2023-05-17T20:28:17.449Z,17.03
2023-05-17T20:30:51.721Z,16.76
2023-05-17T20:33:26.654Z,16.85
2023-05-17T20:35:59.965Z,16.89
2023-05-17T20:38:32.978Z,16.86
2023-05-17T20:41:07.516Z,16.78
2023-05-17T20:43:40.564Z,16.65
2023-05-17T20:46:15.406Z,16.57
2023-05-17T20:48:49.724Z,16.59
2023-05-17T20:51:23.532Z,16.51
2023-05-17T20:53:58.061Z,16.52
2023-05-17T20:56:31.151Z,16.48
2023-05-17T20:59:04.221Z,16.45
2023-05-17T21:01:38.648Z,16.49
2023-05-17T21:04:46.274Z,16.38
2023-05-17T21:07:19.944Z,16.38
2023-05-17T21:09:52.766Z,16.33
2023-05-17T21:12:27.837Z,16.33
2023-05-17T21:15:15.063Z,16.37
2023-05-17T21:17:51.067Z,16.27
2023-05-17T21:20:24.915Z,16.20
2023-05-17T21:22:57.975Z,16.23
2023-05-17T21:25:31.170Z,16.18
2023-05-17T21:28:04.266Z,16.11
2023-05-17T21:30:37.088Z,16.09
2023-05-17T21:33:11.352Z,16.02
2023-05-17T21:35:45.803Z,15.99
2023-05-17T21:38:18.796Z,15.98
2023-05-17T21:40:51.621Z,15.90
2023-05-17T21:43:24.508Z,15.85
2023-05-17T21:45:58.702Z,15.69
2023-05-17T21:48:33.165Z,15.80
2023-05-17T21:51:06.147Z,15.78
2023-05-17T21:53:38.949Z,15.74
2023-05-17T21:56:12.118Z,15.62
2023-05-17T21:58:44.967Z,15.61
2023-05-17T22:01:20.126Z,15.52
2023-05-17T22:03:55.336Z,15.53
2023-05-17T22:06:28.556Z,15.51
2023-05-17T22:09:01.520Z,15.40
2023-05-17T22:11:38.187Z,15.39
2023-05-17T22:14:11.657Z,15.28
2023-05-17T22:16:45.750Z,15.26
2023-05-17T22:19:24.690Z,15.32
2023-05-17T22:21:57.849Z,15.31
2023-05-17T22:24:31.021Z,15.19
2023-05-17T22:27:04.296Z,15.23
2023-05-17T22:29:38.489Z,15.23
2023-05-17T22:32:11.561Z,15.25
2023-05-17T22:35:00.996Z,15.17
2023-05-17T22:37:34.568Z,15.19
2023-05-17T22:40:11.976Z,15.17
2023-05-17T22:42:44.874Z,15.03
2023-05-17T22:45:18.270Z,15.06
2023-05-17T22:47:51.067Z,15.08
2023-05-17T22:50:30.598Z,15.02
2023-05-17T22:53:03.758Z,14.91
2023-05-17T22:55:36.549Z,14.94
2023-05-17T22:58:09.884Z,14.77
2023-05-17T23:00:42.820Z,14.83
2023-05-17T23:03:15.583Z,14.87
2023-05-17T23:05:51.490Z,14.84
2023-05-17T23:08:27.199Z,14.68
2023-05-17T23:11:01.741Z,14.77
2023-05-17T23:13:36.373Z,14.64
2023-05-17T23:16:09.772Z,14.65
2023-05-17T23:18:42.752Z,14.69
2023-05-17T23:21:17.056Z,14.74
2023-05-17T23:23:49.976Z,14.66
2023-05-17T23:26:22.699Z,14.57
2023-05-17T23:28:55.519Z,14.61
2023-05-17T23:31:30.008Z,14.53
2023-05-17T23:34:03.155Z,14.56
2023-05-17T23:36:37.233Z,14.54
2023-05-17T23:39:10.708Z,14.53
2023-05-17T23:41:43.758Z,14.47
2023-05-17T23:53:13.150Z,14.34
2023-05-17T23:55:48.032Z,14.24
2023-05-17T23:58:20.882Z,14.29
